Time;durP1;ratioP1;P1;durP2;ratioP2;P2;SDS_P1;SDS_P2;PMS_P1;PMS_P2;Temp;Humidity;BMP_temperature;BMP_pressure;BME280_temperature;BME280_humidity;BME280_pressure;Samples;Min_cycle;Max_cycle;Signal;HPM_P1;HPM_P2
2022/06/22 00:03:28;;;;;;;16.37;3.98;;;26.30;98.50;;;;;;1929571;72;22727;-87
2022/06/22 00:09:26;;;;;;;15.38;3.62;;;26.40;98.70;;;;;;1955995;72;22203;-86
2022/06/22 00:12:36;;;;;;;19.05;4.33;;;26.30;99.00;;;;;;1921212;73;21556;-86
2022/06/22 00:15:51;;;;;;;16.70;4.10;;;26.20;99.10;;;;;;1920015;73;21046;-86
2022/06/22 00:18:45;;;;;;;13.85;3.85;;;26.20;99.20;;;;;;1915584;73;21058;-86
2022/06/22 00:21:55;;;;;;;17.23;4.22;;;26.20;99.50;;;;;;1935942;73;21051;-86
2022/06/22 00:27:36;;;;;;;17.73;4.10;;;26.00;99.90;;;;;;1973102;72;22054;-86
2022/06/22 00:30:49;;;;;;;21.93;4.25;;;25.90;99.90;;;;;;1918190;73;21535;-86
2022/06/22 00:34:08;;;;;;;17.57;4.65;;;25.90;99.90;;;;;;1923936;73;21156;-86
2022/06/22 00:37:01;;;;;;;19.23;4.33;;;25.90;99.90;;;;;;1939598;73;21067;-86
2022/06/22 00:42:53;;;;;;;15.50;3.67;;;25.90;99.90;;;;;;1933700;72;22130;-86
2022/06/22 00:46:04;;;;;;;20.97;4.42;;;25.80;99.90;;;;;;1897521;75;21839;-86
2022/06/22 00:49:19;;;;;;;18.57;4.92;;;25.70;99.90;;;;;;1906116;74;21106;-87
2022/06/22 00:52:11;;;;;;;22.20;4.37;;;25.70;99.90;;;;;;1898624;75;21133;-86
2022/06/22 00:55:25;;;;;;;18.10;4.58;;;25.60;99.90;;;;;;1914650;74;21041;-86
2022/06/22 00:58:20;;;;;;;16.82;4.78;;;25.40;99.90;;;;;;1909875;74;21079;-86
2022/06/22 01:03:56;;;;;;;17.50;3.92;;;25.10;99.90;;;;;;1941517;72;22259;-86
2022/06/22 01:07:09;;;;;;;15.88;3.75;;;25.00;99.90;;;;;;1896318;75;21229;-86
2022/06/22 01:13:03;;;;;;;15.55;3.87;;;24.40;99.90;;;;;;1941382;72;22126;-86
2022/06/22 01:18:59;;;;;;;16.60;4.45;;;24.00;99.90;;;;;;1960218;72;22247;-86
2022/06/22 01:27:44;;;;;;;20.60;5.63;;;24.00;99.90;;;;;;1925448;72;27997;-85
2022/06/22 01:30:56;;;;;;;20.12;5.08;;;24.30;99.90;;;;;;1912637;74;21734;-86
2022/06/22 01:36:47;;;;;;;21.15;4.83;;;24.20;99.90;;;;;;1940218;72;22138;-86
2022/06/22 01:40:03;;;;;;;18.77;4.78;;;24.20;99.90;;;;;;1890236;75;21160;-86
2022/06/22 01:43:19;;;;;;;20.23;4.50;;;24.00;99.90;;;;;;1885021;75;21015;-86
2022/06/22 01:48:58;;;;;;;19.23;4.42;;;23.70;99.90;;;;;;1945466;72;22127;-86
2022/06/22 01:52:11;;;;;;;20.48;4.75;;;23.60;99.90;;;;;;1904358;75;21470;-86
2022/06/22 01:55:28;;;;;;;18.45;3.80;;;23.50;99.90;;;;;;1888386;75;21038;-86
2022/06/22 02:01:30;;;;;;;18.23;4.67;;;23.20;99.90;;;;;;1931228;72;22263;-86
2022/06/22 02:07:48;;;;;;;17.95;4.30;;;23.10;99.90;;;;;;1960307;72;22254;-86
2022/06/22 02:13:39;;;;;;;21.25;5.00;;;23.00;99.90;;;;;;1965906;72;22664;-85
2022/06/22 02:19:32;;;;;;;19.00;4.58;;;22.80;99.90;;;;;;1939397;72;22118;-86
2022/06/22 02:22:42;;;;;;;16.17;4.40;;;22.60;99.90;;;;;;1912033;75;21079;-86
2022/06/22 02:26:00;;;;;;;19.30;4.60;;;22.60;99.90;;;;;;1900973;75;21160;-86
2022/06/22 02:28:51;;;;;;;19.15;4.40;;;22.50;99.90;;;;;;1889528;75;21110;-86
2022/06/22 02:32:03;;;;;;;15.65;4.05;;;22.50;99.90;;;;;;1900968;75;21121;-86
2022/06/22 02:37:36;;;;;;;15.80;3.85;;;22.70;99.90;;;;;;1931766;72;22173;-86
2022/06/22 02:44:31;;;;;;;15.43;4.15;;;23.00;99.90;;;;;;1883853;75;21124;-86
2022/06/22 02:47:26;;;;;;;17.40;4.53;;;23.00;99.90;;;;;;1888849;75;21044;-86
2022/06/22 02:50:39;;;;;;;16.27;3.98;;;23.00;99.90;;;;;;1898487;75;21571;-86
2022/06/22 02:53:35;;;;;;;19.15;4.20;;;23.10;99.90;;;;;;1896539;75;21102;-86
2022/06/22 02:56:31;;;;;;;17.65;4.17;;;23.10;99.90;;;;;;1882134;75;21050;-86
2022/06/22 02:59:22;;;;;;;16.10;4.47;;;23.10;99.90;;;;;;1880948;75;21063;-86
2022/06/22 03:02:14;;;;;;;17.05;4.97;;;23.20;99.90;;;;;;1893950;75;21163;-86
2022/06/22 03:05:08;;;;;;;15.85;4.17;;;23.20;99.90;;;;;;1901474;75;21127;-87
2022/06/22 03:08:02;;;;;;;18.40;4.42;;;23.20;99.90;;;;;;1890556;75;21146;-87
2022/06/22 03:13:36;;;;;;;16.05;4.22;;;22.80;99.90;;;;;;1941698;72;22213;-86
2022/06/22 03:16:50;;;;;;;16.23;4.12;;;22.90;99.90;;;;;;1902177;74;21084;-86
2022/06/22 03:22:46;;;;;;;15.38;3.90;;;22.80;99.90;;;;;;1951394;72;22161;-86
2022/06/22 03:26:00;;;;;;;15.70;4.10;;;22.70;99.90;;;;;;1899053;75;21105;-86
2022/06/22 03:31:55;;;;;;;19.60;4.22;;;22.70;99.90;;;;;;1948037;72;22630;-86
2022/06/22 03:37:51;;;;;;;20.05;4.25;;;22.90;99.90;;;;;;1963788;72;22280;-86
2022/06/22 03:41:04;;;;;;;14.50;4.15;;;23.00;99.90;;;;;;1919259;73;21215;-86
2022/06/22 03:44:16;;;;;;;16.87;4.30;;;23.20;99.90;;;;;;1923013;73;21275;-75
2022/06/22 03:47:11;;;;;;;17.07;3.98;;;23.30;99.90;;;;;;1918879;73;21127;-75
2022/06/22 03:50:25;;;;;;;15.53;4.17;;;23.10;99.90;;;;;;1916984;73;21143;-75
2022/06/22 03:53:19;;;;;;;19.55;4.90;;;23.00;99.90;;;;;;1919050;73;21047;-75
2022/06/22 03:56:14;;;;;;;15.15;4.25;;;23.00;99.90;;;;;;1922814;73;21154;-75
2022/06/22 03:59:08;;;;;;;16.32;4.22;;;23.00;99.90;;;;;;1919293;73;21134;-76
2022/06/22 04:02:00;;;;;;;18.70;4.33;;;23.00;99.90;;;;;;1923807;73;21146;-75
2022/06/22 04:04:54;;;;;;;20.72;4.20;;;22.80;99.90;;;;;;1918788;73;21175;-75
2022/06/22 04:07:46;;;;;;;21.25;4.70;;;22.60;99.90;;;;;;1916394;73;21142;-75
2022/06/22 04:13:25;;;;;;;15.65;4.47;;;22.30;99.90;;;;;;1938903;72;22269;-75
2022/06/22 04:16:38;;;;;;;21.10;4.75;;;22.10;99.90;;;;;;1899845;75;21462;-76
2022/06/22 04:22:28;;;;;;;18.30;4.05;;;22.00;99.90;;;;;;1934570;72;22241;-76
2022/06/22 04:25:40;;;;;;;22.10;4.80;;;22.20;99.90;;;;;;1901352;75;21692;-76
2022/06/22 04:28:53;;;;;;;21.75;4.67;;;22.00;99.90;;;;;;1895593;75;21154;-77
2022/06/22 04:31:49;;;;;;;17.27;4.70;;;21.90;99.90;;;;;;1899806;75;21173;-76
2022/06/22 04:35:02;;;;;;;17.40;4.15;;;21.80;99.90;;;;;;1897435;75;21145;-76
2022/06/22 04:37:56;;;;;;;21.12;4.87;;;21.90;99.90;;;;;;1893888;73;21521;-76
2022/06/22 04:40:54;;;;;;;18.07;4.08;;;21.80;99.90;;;;;;1893871;75;21109;-76
2022/06/22 04:43:46;;;;;;;18.42;4.97;;;21.90;99.90;;;;;;1900506;75;21193;-76
2022/06/22 04:49:24;;;;;;;18.35;4.55;;;22.10;99.90;;;;;;1945960;72;22655;-75
2022/06/22 04:52:37;;;;;;;22.02;5.45;;;22.20;99.90;;;;;;1917396;73;21080;-76
2022/06/22 04:55:47;;;;;;;18.05;4.92;;;22.10;99.90;;;;;;1925137;73;21175;-75
2022/06/22 04:58:42;;;;;;;18.45;5.40;;;22.10;99.90;;;;;;1908803;73;21187;-76
2022/06/22 05:01:55;;;;;;;18.60;4.60;;;22.00;99.90;;;;;;1918327;73;21072;-76
2022/06/22 05:04:49;;;;;;;19.87;5.37;;;21.80;99.90;;;;;;1927816;73;21479;-75
2022/06/22 05:07:51;;;;;;;16.73;4.90;;;21.70;99.90;;;;;;1931816;73;21109;-75
2022/06/22 05:13:27;;;;;;;19.48;5.12;;;21.50;99.90;;;;;;1948304;72;22177;-76
2022/06/22 05:16:38;;;;;;;20.17;4.72;;;21.40;99.90;;;;;;1894933;73;21121;-76
2022/06/22 05:22:27;;;;;;;18.92;5.42;;;21.40;99.90;;;;;;1951689;72;22212;-76
2022/06/22 05:25:39;;;;;;;19.50;5.08;;;21.30;99.90;;;;;;1946598;72;21718;-76
2022/06/22 05:28:52;;;;;;;22.10;5.50;;;21.30;99.90;;;;;;1933883;73;21220;-76
2022/06/22 05:31:46;;;;;;;21.12;5.03;;;21.30;99.90;;;;;;1931161;73;21206;-76
2022/06/22 05:34:57;;;;;;;16.55;5.22;;;21.40;99.90;;;;;;1927799;73;21168;-76
2022/06/22 05:37:52;;;;;;;17.60;5.28;;;21.40;99.90;;;;;;1950415;73;21078;-76
2022/06/22 05:43:25;;;;;;;23.60;5.40;;;21.50;99.90;;;;;;1935340;72;22154;-75
2022/06/22 05:46:35;;;;;;;17.12;5.45;;;21.50;99.90;;;;;;1884216;75;21160;-76
2022/06/22 05:49:47;;;;;;;18.82;6.12;;;21.50;99.90;;;;;;1909295;75;21091;-77
2022/06/22 05:52:43;;;;;;;17.60;5.62;;;21.50;99.90;;;;;;1904293;75;21162;-79
2022/06/22 05:56:09;;;;;;;20.08;5.10;;;21.50;99.90;;;;;;1895809;75;21514;-88
2022/06/22 05:59:07;;;;;;;23.57;6.50;;;21.60;99.90;;;;;;1908738;75;21090;-88
2022/06/22 06:02:01;;;;;;;24.00;6.93;;;21.70;99.90;;;;;;1901003;73;21240;-88
2022/06/22 06:07:40;;;;;;;16.05;5.75;;;21.80;99.90;;;;;;1975081;72;22174;-87
2022/06/22 06:13:33;;;;;;;18.82;6.00;;;21.90;99.90;;;;;;1953083;72;22256;-88
2022/06/22 06:16:48;;;;;;;21.82;6.15;;;21.90;99.90;;;;;;1895496;75;21122;-88
2022/06/22 06:22:45;;;;;;;18.73;5.55;;;21.80;99.90;;;;;;1943857;72;22212;-88
2022/06/22 06:32:26;;;;;;;16.42;4.67;;;21.90;99.90;;;;;;1975690;72;22209;-88
2022/06/22 06:38:23;;;;;;;18.50;5.12;;;21.90;99.90;;;;;;1945697;72;22170;-87
2022/06/22 06:41:36;;;;;;;16.20;4.72;;;21.90;99.90;;;;;;1898184;75;21090;-88
2022/06/22 06:47:30;;;;;;;22.22;5.72;;;22.10;99.90;;;;;;1952225;72;22189;-88
2022/06/22 06:50:45;;;;;;;17.82;4.50;;;22.20;99.90;;;;;;1917351;75;21510;-89
2022/06/22 06:53:59;;;;;;;17.90;5.55;;;22.20;99.90;;;;;;1917731;75;21039;-91
2022/06/22 06:56:54;;;;;;;17.98;5.92;;;22.20;99.90;;;;;;1917637;75;21120;-90
2022/06/22 07:00:09;;;;;;;23.80;5.45;;;22.20;99.90;;;;;;1920559;73;21192;-91
2022/06/22 07:03:02;;;;;;;21.95;6.47;;;22.20;99.90;;;;;;1929373;73;21086;-90
2022/06/22 07:09:30;;;;;;;20.10;5.87;;;22.40;99.90;;;;;;2042896;69;22146;-88
2022/06/22 07:12:43;;;;;;;15.08;5.97;;;22.50;99.90;;;;;;1978845;71;21067;-89
2022/06/22 07:15:58;;;;;;;19.75;5.90;;;22.70;99.90;;;;;;1996025;70;21024;-89
2022/06/22 07:18:54;;;;;;;17.87;5.62;;;22.70;99.90;;;;;;2008041;71;21224;-91
2022/06/22 07:22:09;;;;;;;17.57;5.50;;;22.60;99.90;;;;;;1995529;71;21072;-91
2022/06/22 07:25:05;;;;;;;17.60;5.63;;;22.70;99.90;;;;;;2017682;70;21128;-92
2022/06/22 07:28:00;;;;;;;16.10;5.45;;;22.70;99.90;;;;;;1998736;71;21265;-92
2022/06/22 07:30:57;;;;;;;17.05;5.50;;;22.70;99.90;;;;;;2014879;71;21047;-90
2022/06/22 07:33:51;;;;;;;17.57;5.57;;;22.80;99.90;;;;;;2020247;71;21049;-92
2022/06/22 07:36:46;;;;;;;15.43;4.47;;;22.90;99.90;;;;;;1977396;72;21815;-91
2022/06/22 07:39:42;;;;;;;21.27;5.37;;;22.90;99.90;;;;;;1995755;71;21163;-89
2022/06/22 07:42:37;;;;;;;18.75;5.40;;;23.00;99.90;;;;;;2008739;71;21096;-90
2022/06/22 07:45:32;;;;;;;18.65;5.30;;;23.10;99.90;;;;;;1997006;71;21145;-89
2022/06/22 07:48:26;;;;;;;17.73;4.95;;;23.20;99.90;;;;;;2004215;71;21353;-89
2022/06/22 07:51:23;;;;;;;16.70;5.05;;;23.10;99.90;;;;;;2014589;71;21178;-89
2022/06/22 07:54:20;;;;;;;17.32;4.78;;;23.20;99.90;;;;;;2007677;71;21163;-88
2022/06/22 08:00:20;;;;;;;16.27;4.95;;;23.50;99.90;;;;;;1965749;72;22186;-91
2022/06/22 08:06:53;;;;;;;23.32;6.20;;;23.40;99.90;;;;;;2011618;71;22111;-90
2022/06/22 08:10:06;;;;;;;17.87;4.92;;;23.40;99.90;;;;;;1965237;72;21119;-92
2022/06/22 08:13:24;;;;;;;17.57;4.67;;;23.60;99.90;;;;;;2033197;69;21055;-92
2022/06/22 08:16:25;;;;;;;21.35;4.97;;;23.70;99.90;;;;;;2056461;69;21027;-88
2022/06/22 08:19:40;;;;;;;19.25;5.75;;;23.90;99.90;;;;;;2052546;69;21034;-88
2022/06/22 08:22:33;;;;;;;19.50;4.78;;;24.20;99.90;;;;;;2043031;69;21070;-88
2022/06/22 08:28:46;;;;;;;17.42;5.65;;;24.10;99.90;;;;;;2036318;69;21140;-91
2022/06/22 08:31:45;;;;;;;19.95;5.85;;;24.10;99.90;;;;;;2063692;69;21694;-91
2022/06/22 08:34:44;;;;;;;23.02;5.67;;;24.10;99.90;;;;;;2058066;69;21038;-92
2022/06/22 08:37:42;;;;;;;15.63;4.33;;;24.10;99.90;;;;;;2032512;69;21085;-92
2022/06/22 08:40:39;;;;;;;15.48;5.05;;;24.10;99.90;;;;;;2059932;69;21117;-92
2022/06/22 08:46:51;;;;;;;16.55;5.22;;;24.40;99.90;;;;;;1960635;72;22196;-89
2022/06/22 08:50:34;;;;;;;15.25;4.40;;;24.50;99.90;;;;;;1914214;74;21020;-91
2022/06/22 08:54:08;;;;;;;16.77;5.10;;;24.60;99.90;;;;;;1909317;74;21083;-93
2022/06/22 09:47:28;;;;;;;19.07;5.33;;;26.30;99.90;;;;;;2026247;69;22051;-88
2022/06/22 09:51:10;;;;;;;17.95;4.58;;;26.40;99.90;;;;;;1991998;72;21073;-93
2022/06/22 09:58:31;;;;;;;16.62;4.08;;;26.60;99.90;;;;;;1971502;72;21017;-94
2022/06/22 10:01:46;;;;;;;16.77;4.67;;;26.60;99.90;;;;;;1984889;72;21011;-93
2022/06/22 10:05:02;;;;;;;13.25;3.62;;;26.70;99.90;;;;;;1985003;72;21487;-94
2022/06/22 10:08:01;;;;;;;19.35;7.60;;;26.80;99.90;;;;;;1984273;72;21035;-88
2022/06/22 10:10:57;;;;;;;17.55;5.03;;;26.90;99.90;;;;;;1967515;72;21035;-87
2022/06/22 10:14:09;;;;;;;18.55;4.80;;;27.10;99.90;;;;;;1962140;72;21173;-87
2022/06/22 10:17:13;;;;;;;17.52;4.17;;;27.20;99.90;;;;;;1970886;72;21572;-88
2022/06/22 10:20:18;;;;;;;17.27;4.75;;;27.40;99.90;;;;;;1982758;72;21040;-87
2022/06/22 10:23:23;;;;;;;16.30;4.62;;;27.50;99.90;;;;;;1951195;72;21176;-87
2022/06/22 10:26:27;;;;;;;18.90;4.95;;;27.70;99.90;;;;;;1972137;72;21201;-88
2022/06/22 10:29:49;;;;;;;14.18;4.03;;;27.80;99.90;;;;;;1972182;72;21047;-87
2022/06/22 10:33:30;;;;;;;15.43;4.40;;;28.00;99.90;;;;;;1949251;73;21039;-93
2022/06/22 10:36:40;;;;;;;18.15;4.55;;;28.10;99.90;;;;;;1949221;73;21145;-94
2022/06/22 10:39:56;;;;;;;15.32;5.25;;;28.10;99.90;;;;;;1984353;72;21024;-94
2022/06/22 10:46:05;;;;;;;15.68;4.42;;;28.30;99.90;;;;;;1972192;72;21067;-94
2022/06/22 10:49:16;;;;;;;20.12;4.95;;;28.50;99.90;;;;;;1954220;72;21052;-87
2022/06/22 10:55:52;;;;;;;18.07;4.62;;;28.70;99.90;;;;;;1945350;72;22118;-90
2022/06/22 10:59:28;;;;;;;14.55;4.62;;;28.90;99.90;;;;;;1905609;75;21110;-88
2022/06/22 11:03:02;;;;;;;18.23;4.47;;;28.90;99.90;;;;;;1922270;74;21091;-87
2022/06/22 11:06:19;;;;;;;14.83;4.53;;;28.80;99.90;;;;;;1905331;75;21115;-88
2022/06/22 11:09:49;;;;;;;15.98;4.20;;;29.00;99.90;;;;;;1905677;75;21546;-87
2022/06/22 12:26:28;;;;;;;17.57;4.83;;;28.60;99.90;;;;;;1949930;72;22300;-87
2022/06/22 12:29:46;;;;;;;16.90;4.83;;;28.50;99.90;;;;;;1872937;75;21056;-89
2022/06/22 12:33:01;;;;;;;23.27;5.30;;;28.50;99.90;;;;;;1893935;75;21080;-89
2022/06/22 12:35:57;;;;;;;16.65;3.90;;;28.70;99.90;;;;;;1883418;75;21129;-89
2022/06/22 12:39:13;;;;;;;17.40;3.95;;;28.50;99.90;;;;;;1896587;75;21202;-89
2022/06/22 12:42:14;;;;;;;18.30;4.45;;;27.90;99.90;;;;;;1894771;75;21581;-89
2022/06/22 12:45:17;;;;;;;16.00;3.80;;;27.80;99.90;;;;;;1873255;76;21555;-89
2022/06/22 12:48:42;;;;;;;20.12;3.87;;;28.10;99.90;;;;;;1885596;76;21557;-94
2022/06/22 13:16:08;;;;;;;17.90;3.65;;;29.30;99.90;;;;;;1958953;72;22172;-89
2022/06/22 13:22:09;;;;;;;15.00;4.37;;;29.60;99.90;;;;;;1940939;72;22155;-89
2022/06/22 13:25:28;;;;;;;19.20;4.03;;;29.70;99.90;;;;;;1901063;75;21062;-89
2022/06/22 13:28:43;;;;;;;19.87;3.25;;;29.70;99.90;;;;;;1884828;76;21079;-88
2022/06/22 13:31:38;;;;;;;18.45;4.05;;;29.60;99.90;;;;;;1897445;75;21120;-89
2022/06/22 13:37:49;;;;;;;25.02;4.90;;;29.30;99.90;;;;;;1968557;72;22213;-88
2022/06/22 13:41:10;;;;;;;18.95;4.83;;;29.20;99.90;;;;;;1917787;75;21164;-88
2022/06/22 13:44:53;;;;;;;24.55;4.90;;;29.10;99.90;;;;;;1940302;73;21164;-88
2022/06/22 13:48:11;;;;;;;22.25;4.37;;;29.20;99.90;;;;;;1929227;73;21051;-89
2022/06/22 13:51:44;;;;;;;18.02;4.28;;;29.10;99.90;;;;;;1934812;73;21134;-88
2022/06/22 13:55:10;;;;;;;17.52;3.85;;;29.00;99.90;;;;;;1917611;75;21051;-88
2022/06/22 13:58:06;;;;;;;15.55;3.40;;;29.00;99.90;;;;;;1917580;75;21176;-88
2022/06/22 14:01:03;;;;;;;20.10;3.55;;;28.80;99.90;;;;;;1933411;73;21142;-90
2022/06/22 14:05:03;;;;;;;19.25;3.42;;;28.70;99.90;;;;;;1929660;73;21096;-88
2022/06/22 14:08:49;;;;;;;18.62;4.65;;;28.70;99.90;;;;;;1914599;75;21063;-94
2022/06/22 14:11:46;;;;;;;16.10;4.42;;;28.70;99.90;;;;;;1947545;73;21071;-95
2022/06/22 14:14:44;;;;;;;23.10;4.62;;;28.00;99.90;;;;;;1952715;73;21120;-91
2022/06/22 14:17:40;;;;;;;19.48;4.65;;;27.70;99.90;;;;;;1952490;73;21064;-94
2022/06/22 14:24:42;;;;;;;15.98;3.80;;;27.20;99.90;;;;;;1917773;75;21184;-88
2022/06/22 14:27:52;;;;;;;17.67;3.75;;;27.30;99.90;;;;;;1917625;75;21098;-88
2022/06/22 14:33:46;;;;;;;17.73;3.33;;;27.70;99.90;;;;;;1958247;72;22135;-88
2022/06/22 14:37:02;;;;;;;19.80;3.65;;;28.60;99.90;;;;;;1904844;75;21129;-93
2022/06/22 14:40:19;;;;;;;13.27;3.33;;;30.10;99.90;;;;;;1919071;75;21150;-93
2022/06/22 14:46:03;;;;;;;15.90;2.90;;;31.50;99.90;;;;;;1947155;72;22146;-87
2022/06/22 14:49:18;;;;;;;14.30;3.65;;;31.30;99.90;;;;;;1885686;76;21061;-92
2022/06/22 14:52:34;;;;;;;11.22;2.60;;;31.70;99.90;;;;;;1891848;75;21071;-87
2022/06/22 14:55:36;;;;;;;14.15;3.17;;;32.30;99.90;;;;;;1909285;75;21489;-87
2022/06/22 14:58:49;;;;;;;10.60;2.35;;;33.20;99.90;;;;;;1917958;75;21133;-87
2022/06/22 15:01:45;;;;;;;11.48;2.47;;;33.70;99.90;;;;;;1917177;75;21096;-87
2022/06/22 15:04:40;;;;;;;10.10;2.70;;;34.30;99.90;;;;;;1913622;75;21062;-88
2022/06/22 15:10:25;;;;;;;9.65;2.70;;;35.40;99.00;;;;;;1955974;72;22620;-87
2022/06/22 15:27:26;;;;;;;13.68;2.80;;;34.50;96.70;;;;;;1953380;72;22179;-87
2022/06/22 15:30:42;;;;;;;12.53;2.40;;;34.20;96.70;;;;;;1905947;75;21521;-87
2022/06/22 15:50:44;;;;;;;14.53;2.90;;;32.70;98.30;;;;;;1976480;72;22562;-93
2022/06/22 15:53:58;;;;;;;14.53;3.30;;;32.60;98.40;;;;;;1943087;73;21126;-88
2022/06/22 15:59:55;;;;;;;15.08;3.27;;;31.80;99.30;;;;;;1936252;72;22155;-91
2022/06/22 16:03:12;;;;;;;21.35;3.55;;;31.60;99.20;;;;;;1886801;76;21090;-92
2022/06/22 16:26:20;;;;;;;17.67;4.28;;;30.50;99.90;;;;;;2069907;68;22059;-87
2022/06/22 16:29:34;;;;;;;21.25;3.95;;;30.40;99.90;;;;;;2024057;70;21090;-89
2022/06/22 16:32:47;;;;;;;21.33;3.77;;;30.30;99.90;;;;;;1999138;71;21073;-91
2022/06/22 16:35:44;;;;;;;18.00;4.05;;;30.00;99.90;;;;;;2026213;70;21075;-89
2022/06/22 16:39:01;;;;;;;18.67;3.50;;;29.90;99.90;;;;;;2008740;70;21008;-88
2022/06/22 16:42:00;;;;;;;20.02;3.98;;;29.70;99.90;;;;;;2022394;70;21067;-88
2022/06/22 16:45:03;;;;;;;19.23;3.98;;;29.70;99.90;;;;;;1998680;72;21171;-92
2022/06/22 16:47:58;;;;;;;19.40;4.25;;;29.50;99.90;;;;;;1995818;72;21137;-88
2022/06/22 16:50:52;;;;;;;17.92;3.92;;;29.40;99.90;;;;;;1990996;72;21022;-88
2022/06/22 16:53:49;;;;;;;17.52;3.50;;;29.30;99.90;;;;;;2005683;70;21038;-88
2022/06/22 16:56:44;;;;;;;19.02;4.30;;;29.20;99.90;;;;;;2000116;70;21482;-88
2022/06/22 16:59:46;;;;;;;22.30;3.58;;;29.10;99.90;;;;;;2036107;70;21031;-92
2022/06/22 17:02:44;;;;;;;17.85;3.65;;;29.10;99.90;;;;;;2036334;70;21066;-91
2022/06/22 17:09:31;;;;;;;21.07;4.60;;;29.10;99.90;;;;;;2084907;68;22240;-91
2022/06/22 17:12:46;;;;;;;15.88;3.58;;;29.10;99.90;;;;;;2021246;70;21015;-88
2022/06/22 17:16:02;;;;;;;17.40;4.15;;;28.90;99.90;;;;;;2036145;70;21018;-91
2022/06/22 17:18:58;;;;;;;21.37;4.55;;;28.90;99.90;;;;;;2037202;70;21079;-93
2022/06/22 17:25:47;;;;;;;21.57;4.60;;;28.80;99.90;;;;;;1978460;71;28010;-89
2022/06/22 17:29:01;;;;;;;20.02;4.15;;;28.80;99.90;;;;;;1953598;72;21128;-88
2022/06/22 17:32:22;;;;;;;17.98;4.42;;;28.80;99.90;;;;;;2055433;69;21031;-88
2022/06/22 17:35:24;;;;;;;16.52;4.45;;;28.70;99.90;;;;;;2052616;69;21071;-88
2022/06/22 17:38:43;;;;;;;23.57;5.15;;;28.60;99.90;;;;;;2053607;69;21104;-88
2022/06/22 17:41:42;;;;;;;22.75;4.72;;;28.60;99.90;;;;;;2070604;69;21108;-88
2022/06/22 17:44:39;;;;;;;19.92;3.85;;;28.50;99.90;;;;;;2046528;69;21086;-88
2022/06/22 17:47:33;;;;;;;26.23;4.50;;;28.50;99.90;;;;;;2045069;69;21080;-88
2022/06/22 17:53:12;;;;;;;20.35;4.22;;;28.40;99.90;;;;;;1958178;72;22189;-87
2022/06/22 17:56:25;;;;;;;23.02;4.50;;;28.40;99.90;;;;;;1903128;75;21485;-92
2022/06/22 17:59:45;;;;;;;26.42;4.90;;;28.30;99.90;;;;;;1911797;75;21061;-88
2022/06/22 18:02:44;;;;;;;20.12;4.65;;;28.30;99.90;;;;;;1902628;75;21494;-88
2022/06/22 18:06:05;;;;;;;22.87;3.92;;;28.30;99.90;;;;;;1885148;76;21095;-88
2022/06/22 18:09:02;;;;;;;21.85;4.67;;;28.30;99.90;;;;;;1898584;75;21055;-88
2022/06/22 18:11:59;;;;;;;18.20;3.75;;;28.20;99.90;;;;;;1908105;75;21211;-89
2022/06/22 18:15:01;;;;;;;20.77;3.70;;;27.90;99.90;;;;;;1890859;75;21121;-88
2022/06/22 18:17:57;;;;;;;19.57;4.20;;;27.30;99.90;;;;;;1915086;75;21518;-88
2022/06/22 18:21:02;;;;;;;20.45;5.00;;;27.20;99.90;;;;;;1884613;76;21660;-89
2022/06/22 18:23:58;;;;;;;23.87;4.58;;;27.00;99.90;;;;;;1903203;75;21082;-88
2022/06/22 18:26:53;;;;;;;21.17;4.65;;;26.90;99.90;;;;;;1899252;75;21087;-88
2022/06/22 18:29:57;;;;;;;22.17;4.60;;;26.80;99.90;;;;;;1885013;75;21105;-88
2022/06/22 18:32:52;;;;;;;19.98;4.50;;;26.50;99.90;;;;;;1907093;75;21043;-89
2022/06/22 18:35:51;;;;;;;20.27;4.33;;;25.90;99.90;;;;;;1910618;75;21200;-88
2022/06/22 18:45:45;;;;;;;20.20;4.80;;;25.40;99.90;;;;;;1976449;72;22145;-88
2022/06/22 18:49:04;;;;;;;18.65;4.20;;;25.40;99.90;;;;;;1923138;73;21080;-89
2022/06/22 18:52:24;;;;;;;16.85;4.25;;;25.30;99.90;;;;;;1925756;73;21138;-89
2022/06/22 18:55:29;;;;;;;18.70;4.67;;;25.30;99.90;;;;;;1952214;73;21109;-91
2022/06/22 18:58:47;;;;;;;15.40;3.72;;;25.20;99.90;;;;;;1952206;73;21093;-91
2022/06/22 19:01:43;;;;;;;16.35;4.05;;;25.10;99.90;;;;;;1952223;73;21039;-91
2022/06/22 19:04:37;;;;;;;19.48;5.25;;;25.30;99.90;;;;;;1952854;73;21105;-91
2022/06/22 19:07:30;;;;;;;21.62;4.45;;;25.30;99.90;;;;;;1954769;73;21067;-90
2022/06/22 19:10:30;;;;;;;20.25;4.75;;;25.40;99.90;;;;;;1921513;75;21085;-91
2022/06/22 19:13:25;;;;;;;23.50;4.65;;;25.50;99.90;;;;;;1920779;75;21091;-92
2022/06/22 19:16:28;;;;;;;23.10;4.58;;;25.50;99.90;;;;;;1918498;75;21070;-90
2022/06/22 19:19:39;;;;;;;18.73;4.35;;;25.30;99.90;;;;;;1918954;75;21074;-92
2022/06/22 19:22:44;;;;;;;24.52;4.92;;;25.10;99.90;;;;;;1920419;75;21126;-92
2022/06/22 19:25:44;;;;;;;20.25;4.75;;;25.00;99.90;;;;;;1918946;75;21061;-89
2022/06/22 19:28:39;;;;;;;17.00;3.62;;;25.00;99.90;;;;;;1918004;75;21204;-89
2022/06/22 19:31:43;;;;;;;14.58;3.90;;;24.90;99.90;;;;;;1918932;75;21054;-89
2022/06/22 19:34:43;;;;;;;21.35;4.62;;;24.90;99.90;;;;;;1919640;75;21059;-92
2022/06/22 19:37:40;;;;;;;20.23;4.62;;;25.00;99.90;;;;;;1948525;73;21113;-92
2022/06/22 19:40:36;;;;;;;20.17;4.37;;;25.10;99.90;;;;;;1953041;73;21127;-91
2022/06/22 19:43:40;;;;;;;24.87;4.97;;;25.10;99.90;;;;;;1918748;75;21075;-92
2022/06/22 19:53:12;;;;;;;23.25;5.25;;;25.00;99.90;;;;;;2015136;71;22170;-90
2022/06/22 19:56:26;;;;;;;19.12;4.30;;;24.80;99.90;;;;;;1989257;72;21101;-92
2022/06/22 19:59:39;;;;;;;21.87;4.78;;;24.70;99.90;;;;;;2072010;69;21056;-93
2022/06/22 20:02:37;;;;;;;15.65;4.17;;;24.60;99.90;;;;;;2034780;70;21112;-92
2022/06/22 20:05:51;;;;;;;22.77;5.17;;;24.30;99.90;;;;;;2036907;70;20999;-90
2022/06/22 20:08:48;;;;;;;18.15;4.75;;;24.20;99.90;;;;;;2033822;70;21071;-92
2022/06/22 20:27:59;;;;;;;15.55;3.08;;;24.40;99.90;;;;;;1977151;72;22222;-91
2022/06/22 20:31:13;;;;;;;8.90;1.77;;;24.10;99.90;;;;;;1913018;73;21135;-90
2022/06/22 20:34:32;;;;;;;11.48;3.17;;;23.90;99.90;;;;;;1912138;74;21090;-93
2022/06/22 20:37:26;;;;;;;10.08;1.30;;;23.50;99.90;;;;;;1914343;74;21068;-92
2022/06/22 20:40:41;;;;;;;14.13;2.15;;;23.40;99.90;;;;;;1906423;74;21089;-88
2022/06/22 20:43:39;;;;;;;5.67;1.22;;;23.30;99.90;;;;;;1905809;75;21073;-88
2022/06/22 20:46:35;;;;;;;8.90;1.55;;;23.20;99.90;;;;;;1905235;75;21168;-83
2022/06/22 20:49:27;;;;;;;13.55;2.45;;;22.50;99.90;;;;;;1918998;74;21166;-80
2022/06/22 20:52:21;;;;;;;10.48;2.12;;;21.30;99.90;;;;;;1907986;74;21518;-85
2022/06/22 20:55:17;;;;;;;13.43;2.80;;;20.40;99.90;;;;;;1905865;74;21087;-85
2022/06/22 20:58:14;;;;;;;11.65;2.52;;;20.00;99.90;;;;;;1927159;74;21047;-84
2022/06/22 21:01:08;;;;;;;11.65;2.15;;;19.70;99.90;;;;;;1905190;75;21121;-82
2022/06/22 21:04:06;;;;;;;7.87;2.02;;;19.60;99.90;;;;;;1905372;75;21107;-83
2022/06/22 21:07:00;;;;;;;6.37;1.95;;;19.60;99.90;;;;;;1921390;74;21039;-82
2022/06/22 21:09:55;;;;;;;9.50;2.05;;;19.70;99.90;;;;;;1907431;74;21083;-83
2022/06/22 21:12:59;;;;;;;8.33;2.05;;;19.60;99.90;;;;;;1906267;74;21052;-82
2022/06/22 21:18:41;;;;;;;6.90;2.12;;;19.60;99.90;;;;;;1934948;72;22282;-81
2022/06/22 21:25:18;;;;;;;11.85;2.50;;;19.50;99.90;;;;;;1935258;72;22180;-83
2022/06/22 21:29:30;;;;;;;7.45;2.30;;;19.50;99.90;;;;;;1907045;75;21146;-84
2022/06/22 21:32:04;;;;;;;6.67;1.75;;;19.50;99.90;;;;;;1896065;74;21552;-85
2022/06/22 21:34:58;;;;;;;11.28;2.12;;;19.40;99.90;;;;;;1907285;75;21064;-87
2022/06/22 21:38:10;;;;;;;8.70;2.15;;;19.40;99.90;;;;;;1905823;74;21552;-87
2022/06/22 21:41:07;;;;;;;13.93;2.30;;;19.50;99.90;;;;;;1915135;73;21128;-87
2022/06/22 21:44:03;;;;;;;11.35;2.45;;;19.60;99.90;;;;;;1903280;75;21144;-89
2022/06/22 21:50:29;;;;;;;6.00;1.85;;;19.70;99.90;;;;;;1940754;72;22600;-87
2022/06/22 21:57:19;;;;;;;8.78;1.82;;;19.90;99.90;;;;;;1943123;72;22222;-85
2022/06/22 22:03:15;;;;;;;11.35;2.75;;;20.00;99.90;;;;;;1928803;72;22553;-86
2022/06/22 22:06:27;;;;;;;;;;;20.00;99.90;;;;;;1890165;75;21137;-86
2022/06/22 22:09:27;;;;;;;7.97;1.87;;;19.90;99.90;;;;;;1893388;75;20237;-88
2022/06/22 22:12:22;;;;;;;6.62;1.75;;;19.90;99.90;;;;;;1889664;75;21108;-88
2022/06/22 22:17:55;;;;;;;10.30;1.98;;;20.10;99.90;;;;;;1934449;72;22146;-89
2022/06/22 22:21:09;;;;;;;9.83;2.20;;;20.10;99.90;;;;;;1908124;74;21039;-88
2022/06/22 22:24:22;;;;;;;9.45;2.47;;;20.10;99.90;;;;;;1886881;75;21108;-89
2022/06/22 22:30:03;;;;;;;9.30;2.10;;;20.30;99.90;;;;;;1925127;72;22162;-87
2022/06/22 22:33:15;;;;;;;11.33;2.52;;;20.30;99.90;;;;;;1908021;75;21150;-87
2022/06/22 22:36:29;;;;;;;6.42;1.80;;;20.30;99.90;;;;;;1905286;73;21182;-87
2022/06/22 22:39:25;;;;;;;12.35;2.55;;;20.30;99.90;;;;;;1870635;76;21117;-88